sensor_id;sensor_type;location;lat;lon;timestamp;P1;P2;P0
46044;PMS7003;31781;54.094;13.428;2023-07-22T13:14:40;0.00;0.00;0.00
46044;PMS7003;31781;54.094;13.428;2023-07-22T13:16:41;0.00;0.00;0.00
46044;PMS7003;31781;54.094;13.428;2023-07-22T13:18:45;0.00;0.00;0.00
46044;PMS7003;31781;54.094;13.428;2023-07-22T13:20:47;0.00;0.00;0.00
46044;PMS7003;31781;54.094;13.428;2023-07-22T13:22:48;0.00;0.00;0.00
46044;PMS7003;31781;54.094;13.428;2023-07-22T13:24:50;0.00;0.00;0.00
46044;PMS7003;31781;54.094;13.428;2023-07-22T13:26:52;0.00;0.00;0.00
46044;PMS7003;31781;54.094;13.428;2023-07-22T13:28:54;0.00;0.00;0.00
46044;PMS7003;31781;54.094;13.428;2023-07-22T13:30:59;1.00;0.00;0.00
46044;PMS7003;31781;54.094;13.428;2023-07-22T13:33:01;0.00;0.00;0.00
46044;PMS7003;31781;54.094;13.428;2023-07-22T13:35:08;0.00;0.00;0.00
46044;PMS7003;31781;54.094;13.428;2023-07-22T13:37:10;0.00;0.00;0.00
46044;PMS7003;31781;54.094;13.428;2023-07-22T13:39:12;0.00;0.00;0.00
46044;PMS7003;31781;54.094;13.428;2023-07-22T13:41:14;0.00;0.00;0.00
46044;PMS7003;31781;54.094;13.428;2023-07-22T13:43:17;0.00;0.00;0.00
46044;PMS7003;31781;54.094;13.428;2023-07-22T13:45:21;0.00;0.00;0.00
46044;PMS7003;31781;54.094;13.428;2023-07-22T13:47:25;0.00;0.00;0.00
46044;PMS7003;31781;54.094;13.428;2023-07-22T13:49:28;0.25;0.25;0.00
46044;PMS7003;31781;54.094;13.428;2023-07-22T13:51:30;0.00;0.00;0.00
46044;PMS7003;31781;54.094;13.428;2023-07-22T13:53:34;0.00;0.00;0.00
46044;PMS7003;31781;54.094;13.428;2023-07-22T13:55:38;0.00;0.00;0.00
46044;PMS7003;31781;54.094;13.428;2023-07-22T13:57:40;0.75;0.75;0.75
46044;PMS7003;31781;54.094;13.428;2023-07-22T13:59:44;1.00;1.00;0.50
46044;PMS7003;31781;54.094;13.428;2023-07-22T14:01:47;2.50;1.00;0.00
46044;PMS7003;31781;54.094;13.428;2023-07-22T14:03:51;1.00;1.00;1.00
46044;PMS7003;31781;54.094;13.428;2023-07-22T14:05:52;0.00;0.00;0.00
46044;PMS7003;31781;54.094;13.428;2023-07-22T14:07:56;0.50;0.50;0.00
46044;PMS7003;31781;54.094;13.428;2023-07-22T14:09:58;0.00;0.00;0.00
46044;PMS7003;31781;54.094;13.428;2023-07-22T14:12:00;0.00;0.00;0.00
46044;PMS7003;31781;54.094;13.428;2023-07-22T14:14:01;0.25;0.00;0.00
46044;PMS7003;31781;54.094;13.428;2023-07-22T14:16:03;0.00;0.00;0.00
46044;PMS7003;31781;54.094;13.428;2023-07-22T14:18:21;0.00;0.00;0.00
46044;PMS7003;31781;54.094;13.428;2023-07-22T14:20:24;0.00;0.00;0.00
46044;PMS7003;31781;54.094;13.428;2023-07-22T14:22:26;0.00;0.00;0.00
46044;PMS7003;31781;54.094;13.428;2023-07-22T14:24:28;0.25;0.25;0.00
46044;PMS7003;31781;54.094;13.428;2023-07-22T14:26:30;1.00;1.00;0.75
46044;PMS7003;31781;54.094;13.428;2023-07-22T14:28:33;0.25;0.25;0.00
46044;PMS7003;31781;54.094;13.428;2023-07-22T14:30:35;2.25;0.00;0.00
46044;PMS7003;31781;54.094;13.428;2023-07-22T14:32:39;0.00;0.00;0.00
46044;PMS7003;31781;54.094;13.428;2023-07-22T14:34:45;0.00;0.00;0.00
46044;PMS7003;31781;54.094;13.428;2023-07-22T14:36:48;0.00;0.00;0.00
46044;PMS7003;31781;54.094;13.428;2023-07-22T14:38:49;0.00;0.00;0.00
46044;PMS7003;31781;54.094;13.428;2023-07-22T14:40:55;0.00;0.00;0.00
46044;PMS7003;31781;54.094;13.428;2023-07-22T14:42:57;0.00;0.00;0.00
46044;PMS7003;31781;54.094;13.428;2023-07-22T14:45:00;0.00;0.00;0.00
46044;PMS7003;31781;54.094;13.428;2023-07-22T14:47:02;0.00;0.00;0.00
46044;PMS7003;31781;54.094;13.428;2023-07-22T14:49:04;1.00;0.75;0.00
46044;PMS7003;31781;54.094;13.428;2023-07-22T14:51:08;0.25;0.00;0.00
46044;PMS7003;31781;54.094;13.428;2023-07-22T14:53:11;0.50;0.50;0.25
46044;PMS7003;31781;54.094;13.428;2023-07-22T14:55:15;0.50;0.50;0.00
46044;PMS7003;31781;54.094;13.428;2023-07-22T14:57:18;0.25;0.25;0.25
46044;PMS7003;31781;54.094;13.428;2023-07-22T14:59:19;0.00;0.00;0.00
46044;PMS7003;31781;54.094;13.428;2023-07-22T15:01:23;0.00;0.00;0.00
46044;PMS7003;31781;54.094;13.428;2023-07-22T15:03:27;0.25;0.25;0.25
46044;PMS7003;31781;54.094;13.428;2023-07-22T15:05:29;3.00;1.00;0.50
46044;PMS7003;31781;54.094;13.428;2023-07-22T15:07:32;0.00;0.00;0.00
46044;PMS7003;31781;54.094;13.428;2023-07-22T15:09:35;0.00;0.00;0.00
46044;PMS7003;31781;54.094;13.428;2023-07-22T15:11:39;1.75;0.50;0.25
46044;PMS7003;31781;54.094;13.428;2023-07-22T15:13:41;0.00;0.00;0.00
46044;PMS7003;31781;54.094;13.428;2023-07-22T15:15:44;0.00;0.00;0.00
46044;PMS7003;31781;54.094;13.428;2023-07-22T15:17:46;1.00;1.00;0.50
46044;PMS7003;31781;54.094;13.428;2023-07-22T15:19:48;1.00;1.00;1.00
46044;PMS7003;31781;54.094;13.428;2023-07-22T15:21:54;0.00;0.00;0.00
46044;PMS7003;31781;54.094;13.428;2023-07-22T15:23:56;1.00;1.00;1.00
46044;PMS7003;31781;54.094;13.428;2023-07-22T15:25:59;0.25;0.00;0.00
46044;PMS7003;31781;54.094;13.428;2023-07-22T15:28:03;0.25;0.25;0.25
46044;PMS7003;31781;54.094;13.428;2023-07-22T15:30:05;0.00;0.00;0.00
46044;PMS7003;31781;54.094;13.428;2023-07-22T15:32:08;0.00;0.00;0.00
46044;PMS7003;31781;54.094;13.428;2023-07-22T15:34:10;0.00;0.00;0.00
46044;PMS7003;31781;54.094;13.428;2023-07-22T15:36:11;0.00;0.00;0.00
46044;PMS7003;31781;54.094;13.428;2023-07-22T15:38:13;0.00;0.00;0.00
46044;PMS7003;31781;54.094;13.428;2023-07-22T15:40:15;0.00;0.00;0.00
46044;PMS7003;31781;54.094;13.428;2023-07-22T15:42:18;0.00;0.00;0.00
46044;PMS7003;31781;54.094;13.428;2023-07-22T15:44:20;0.00;0.00;0.00
46044;PMS7003;31781;54.094;13.428;2023-07-22T15:46:21;0.00;0.00;0.00
46044;PMS7003;31781;54.094;13.428;2023-07-22T15:48:23;0.00;0.00;0.00
46044;PMS7003;31781;54.094;13.428;2023-07-22T15:50:25;0.00;0.00;0.00
46044;PMS7003;31781;54.094;13.428;2023-07-22T15:52:27;0.00;0.00;0.00
46044;PMS7003;31781;54.094;13.428;2023-07-22T15:54:29;0.00;0.00;0.00
46044;PMS7003;31781;54.094;13.428;2023-07-22T15:56:31;0.00;0.00;0.00
46044;PMS7003;31781;54.094;13.428;2023-07-22T15:58:34;0.00;0.00;0.00
46044;PMS7003;31781;54.094;13.428;2023-07-22T16:00:38;0.00;0.00;0.00
46044;PMS7003;31781;54.094;13.428;2023-07-22T16:02:40;0.00;0.00;0.00
46044;PMS7003;31781;54.094;13.428;2023-07-22T16:04:45;0.00;0.00;0.00
46044;PMS7003;31781;54.094;13.428;2023-07-22T16:06:47;0.00;0.00;0.00
46044;PMS7003;31781;54.094;13.428;2023-07-22T16:08:48;1.00;1.00;0.25
46044;PMS7003;31781;54.094;13.428;2023-07-22T16:10:54;0.00;0.00;0.00
46044;PMS7003;31781;54.094;13.428;2023-07-22T16:12:56;0.00;0.00;0.00
46044;PMS7003;31781;54.094;13.428;2023-07-22T16:14:59;0.00;0.00;0.00
46044;PMS7003;31781;54.094;13.428;2023-07-22T16:17:01;0.00;0.00;0.00
46044;PMS7003;31781;54.094;13.428;2023-07-22T16:19:07;0.00;0.00;0.00
46044;PMS7003;31781;54.094;13.428;2023-07-22T16:21:09;0.00;0.00;0.00
46044;PMS7003;31781;54.094;13.428;2023-07-22T16:23:12;0.00;0.00;0.00
46044;PMS7003;31781;54.094;13.428;2023-07-22T16:25:15;0.00;0.00;0.00
46044;PMS7003;31781;54.094;13.428;2023-07-22T16:27:17;0.00;0.00;0.00
46044;PMS7003;31781;54.094;13.428;2023-07-22T16:29:19;0.00;0.00;0.00
46044;PMS7003;31781;54.094;13.428;2023-07-22T16:31:24;0.00;0.00;0.00
46044;PMS7003;31781;54.094;13.428;2023-07-22T16:33:26;0.00;0.00;0.00
46044;PMS7003;31781;54.094;13.428;2023-07-22T16:35:28;0.50;0.50;0.00
46044;PMS7003;31781;54.094;13.428;2023-07-22T16:37:32;0.25;0.25;0.25
46044;PMS7003;31781;54.094;13.428;2023-07-22T16:39:34;1.00;1.00;1.00
46044;PMS7003;31781;54.094;13.428;2023-07-22T16:41:36;0.00;0.00;0.00
46044;PMS7003;31781;54.094;13.428;2023-07-22T16:43:41;0.75;0.00;0.00
46044;PMS7003;31781;54.094;13.428;2023-07-22T16:45:44;1.00;1.00;0.50
46044;PMS7003;31781;54.094;13.428;2023-07-22T16:47:47;6.75;6.75;5.25
46044;PMS7003;31781;54.094;13.428;2023-07-22T16:49:51;1.00;1.00;0.50
46044;PMS7003;31781;54.094;13.428;2023-07-22T16:51:53;1.00;1.00;1.00
46044;PMS7003;31781;54.094;13.428;2023-07-22T16:53:55;1.00;1.00;0.50
46044;PMS7003;31781;54.094;13.428;2023-07-22T16:55:57;0.00;0.00;0.00
46044;PMS7003;31781;54.094;13.428;2023-07-22T16:58:01;0.25;0.25;0.00
46044;PMS7003;31781;54.094;13.428;2023-07-22T17:00:06;0.00;0.00;0.00
46044;PMS7003;31781;54.094;13.428;2023-07-22T17:02:08;1.00;1.00;1.00
46044;PMS7003;31781;54.094;13.428;2023-07-22T17:04:11;0.00;0.00;0.00
46044;PMS7003;31781;54.094;13.428;2023-07-22T17:06:14;0.00;0.00;0.00
46044;PMS7003;31781;54.094;13.428;2023-07-22T17:08:18;0.75;0.75;0.50
46044;PMS7003;31781;54.094;13.428;2023-07-22T17:10:20;3.00;3.00;2.25
46044;PMS7003;31781;54.094;13.428;2023-07-22T17:12:21;2.00;2.00;2.00
46044;PMS7003;31781;54.094;13.428;2023-07-22T17:14:25;2.00;2.00;2.00
46044;PMS7003;31781;54.094;13.428;2023-07-22T17:16:27;2.00;2.00;2.00
46044;PMS7003;31781;54.094;13.428;2023-07-22T17:18:29;1.00;1.00;1.00
46044;PMS7003;31781;54.094;13.428;2023-07-22T17:20:34;2.25;2.25;2.00
46044;PMS7003;31781;54.094;13.428;2023-07-22T17:22:38;0.75;0.75;0.75
46044;PMS7003;31781;54.094;13.428;2023-07-22T17:24:39;1.00;1.00;1.00
46044;PMS7003;31781;54.094;13.428;2023-07-22T17:26:41;2.50;1.50;1.00
46044;PMS7003;31781;54.094;13.428;2023-07-22T17:28:43;0.75;0.75;0.75
46044;PMS7003;31781;54.094;13.428;2023-07-22T17:30:44;1.00;1.00;1.00
46044;PMS7003;31781;54.094;13.428;2023-07-22T17:32:46;2.25;2.00;1.00
46044;PMS7003;31781;54.094;13.428;2023-07-22T17:34:48;0.75;0.75;0.75
46044;PMS7003;31781;54.094;13.428;2023-07-22T17:36:51;0.50;0.50;0.50
46044;PMS7003;31781;54.094;13.428;2023-07-22T17:38:54;0.00;0.00;0.00
46044;PMS7003;31781;54.094;13.428;2023-07-22T17:40:56;1.00;1.00;1.00
46044;PMS7003;31781;54.094;13.428;2023-07-22T17:42:58;0.75;0.75;0.75
46044;PMS7003;31781;54.094;13.428;2023-07-22T17:45:00;1.75;1.00;1.00
46044;PMS7003;31781;54.094;13.428;2023-07-22T17:47:01;1.00;1.00;1.00
46044;PMS7003;31781;54.094;13.428;2023-07-22T17:49:03;1.25;1.25;1.00
46044;PMS7003;31781;54.094;13.428;2023-07-22T17:51:09;1.75;1.75;1.75
46044;PMS7003;31781;54.094;13.428;2023-07-22T17:53:12;2.75;2.00;2.00
46044;PMS7003;31781;54.094;13.428;2023-07-22T17:55:15;1.00;1.00;1.00
46044;PMS7003;31781;54.094;13.428;2023-07-22T17:57:16;1.75;1.00;1.00
46044;PMS7003;31781;54.094;13.428;2023-07-22T17:59:18;0.75;0.75;0.75
46044;PMS7003;31781;54.094;13.428;2023-07-22T18:01:20;1.00;1.00;1.00
46044;PMS7003;31781;54.094;13.428;2023-07-22T18:03:22;2.75;2.75;2.00
46044;PMS7003;31781;54.094;13.428;2023-07-22T18:05:24;2.25;1.25;1.00
46044;PMS7003;31781;54.094;13.428;2023-07-22T18:07:26;1.00;1.00;1.00
46044;PMS7003;31781;54.094;13.428;2023-07-22T18:09:29;1.00;1.00;1.00
46044;PMS7003;31781;54.094;13.428;2023-07-22T18:11:31;1.00;1.00;1.00
46044;PMS7003;31781;54.094;13.428;2023-07-22T18:13:33;1.75;1.75;1.00
46044;PMS7003;31781;54.094;13.428;2023-07-22T18:15:35;1.00;1.00;1.00
46044;PMS7003;31781;54.094;13.428;2023-07-22T18:17:37;0.50;0.50;0.50
46044;PMS7003;31781;54.094;13.428;2023-07-22T18:19:38;1.75;1.75;1.00
46044;PMS7003;31781;54.094;13.428;2023-07-22T18:21:40;2.00;2.00;2.00
46044;PMS7003;31781;54.094;13.428;2023-07-22T18:23:42;2.00;2.00;2.00
46044;PMS7003;31781;54.094;13.428;2023-07-22T18:25:47;1.25;1.25;1.00
46044;PMS7003;31781;54.094;13.428;2023-07-22T18:27:52;2.50;1.00;1.00
46044;PMS7003;31781;54.094;13.428;2023-07-22T18:29:54;1.00;1.00;1.00
46044;PMS7003;31781;54.094;13.428;2023-07-22T18:31:55;1.25;1.25;1.00
46044;PMS7003;31781;54.094;13.428;2023-07-22T18:33:59;4.00;3.00;2.00
46044;PMS7003;31781;54.094;13.428;2023-07-22T18:36:01;2.00;2.00;2.00
46044;PMS7003;31781;54.094;13.428;2023-07-22T18:38:05;2.25;2.25;2.00
46044;PMS7003;31781;54.094;13.428;2023-07-22T18:40:07;3.20;3.20;2.80
46044;PMS7003;31781;54.094;13.428;2023-07-22T18:42:11;4.75;4.75;4.00
46044;PMS7003;31781;54.094;13.428;2023-07-22T18:44:13;3.20;3.20;2.80
46044;PMS7003;31781;54.094;13.428;2023-07-22T18:46:15;4.20;4.20;3.40
46044;PMS7003;31781;54.094;13.428;2023-07-22T18:48:22;3.20;3.20;3.00
46044;PMS7003;31781;54.094;13.428;2023-07-22T18:50:23;5.60;3.60;3.00
46044;PMS7003;31781;54.094;13.428;2023-07-22T18:52:25;4.00;4.00;4.00
46044;PMS7003;31781;54.094;13.428;2023-07-22T18:54:28;8.60;7.00;5.40
46044;PMS7003;31781;54.094;13.428;2023-07-22T18:56:32;5.00;5.00;4.60
46044;PMS7003;31781;54.094;13.428;2023-07-22T18:58:35;3.80;3.80;3.20
46044;PMS7003;31781;54.094;13.428;2023-07-22T19:00:37;4.20;4.20;3.20
46044;PMS7003;31781;54.094;13.428;2023-07-22T19:02:41;1.60;1.60;1.20
46044;PMS7003;31781;54.094;13.428;2023-07-22T19:04:48;2.00;2.00;1.60
46044;PMS7003;31781;54.094;13.428;2023-07-22T19:06:50;4.00;2.00;2.00
46044;PMS7003;31781;54.094;13.428;2023-07-22T19:08:52;1.00;1.00;1.00
46044;PMS7003;31781;54.094;13.428;2023-07-22T19:10:54;2.00;2.00;2.00
46044;PMS7003;31781;54.094;13.428;2023-07-22T19:12:55;2.20;2.20;2.00
46044;PMS7003;31781;54.094;13.428;2023-07-22T19:14:59;5.00;5.00;4.00
46044;PMS7003;31781;54.094;13.428;2023-07-22T19:17:01;6.60;4.20;3.40
46044;PMS7003;31781;54.094;13.428;2023-07-22T19:19:05;4.60;4.60;3.80
46044;PMS7003;31781;54.094;13.428;2023-07-22T19:21:07;5.40;5.40;4.80
46044;PMS7003;31781;54.094;13.428;2023-07-22T19:23:09;2.00;2.00;2.00
46044;PMS7003;31781;54.094;13.428;2023-07-22T19:25:13;3.40;3.40;2.40
46044;PMS7003;31781;54.094;13.428;2023-07-22T19:27:15;3.00;3.00;2.20
46044;PMS7003;31781;54.094;13.428;2023-07-22T19:29:19;3.00;3.00;3.00
46044;PMS7003;31781;54.094;13.428;2023-07-22T19:31:24;4.40;4.40;4.00
46044;PMS7003;31781;54.094;13.428;2023-07-22T19:33:26;4.20;4.20;4.00
46044;PMS7003;31781;54.094;13.428;2023-07-22T19:35:28;4.60;4.00;3.40
46044;PMS7003;31781;54.094;13.428;2023-07-22T19:37:29;5.40;4.60;4.00
46044;PMS7003;31781;54.094;13.428;2023-07-22T19:39:37;3.00;3.00;3.00
46044;PMS7003;31781;54.094;13.428;2023-07-22T19:41:39;4.00;4.00;3.60
46044;PMS7003;31781;54.094;13.428;2023-07-22T19:43:42;3.00;3.00;3.00
46044;PMS7003;31781;54.094;13.428;2023-07-22T19:45:45;3.00;3.00;2.00
46044;PMS7003;31781;54.094;13.428;2023-07-22T19:47:48;2.80;2.80;2.20
46044;PMS7003;31781;54.094;13.428;2023-07-22T19:49:50;2.80;2.80;2.80
46044;PMS7003;31781;54.094;13.428;2023-07-22T19:51:52;2.80;2.80;2.40
46044;PMS7003;31781;54.094;13.428;2023-07-22T19:53:54;3.00;3.00;2.00
46044;PMS7003;31781;54.094;13.428;2023-07-22T19:55:55;4.00;4.00;3.00
46044;PMS7003;31781;54.094;13.428;2023-07-22T19:57:58;3.80;3.80;3.00
46044;PMS7003;31781;54.094;13.428;2023-07-22T19:59:59;4.00;4.00;3.80
46044;PMS7003;31781;54.094;13.428;2023-07-22T20:02:01;3.60;3.60;3.00
46044;PMS7003;31781;54.094;13.428;2023-07-22T20:04:05;3.60;3.60;3.00
46044;PMS7003;31781;54.094;13.428;2023-07-22T20:06:06;4.40;4.40;3.20
46044;PMS7003;31781;54.094;13.428;2023-07-22T20:08:09;4.00;4.00;3.60
46044;PMS7003;31781;54.094;13.428;2023-07-22T20:10:11;3.80;3.80;3.20
46044;PMS7003;31781;54.094;13.428;2023-07-22T20:12:12;4.60;4.60;3.80
46044;PMS7003;31781;54.094;13.428;2023-07-22T20:14:14;3.80;3.80;2.80
46044;PMS7003;31781;54.094;13.428;2023-07-22T20:16:15;6.40;6.40;5.80
46044;PMS7003;31781;54.094;13.428;2023-07-22T20:18:17;6.00;4.20;3.20
46044;PMS7003;31781;54.094;13.428;2023-07-22T20:20:20;2.40;2.40;2.20
46044;PMS7003;31781;54.094;13.428;2023-07-22T20:22:22;3.60;3.00;2.80
46044;PMS7003;31781;54.094;13.428;2023-07-22T20:24:24;3.40;3.40;2.80
46044;PMS7003;31781;54.094;13.428;2023-07-22T20:26:26;3.60;3.60;3.00
46044;PMS7003;31781;54.094;13.428;2023-07-22T20:28:28;3.80;3.80;3.20
46044;PMS7003;31781;54.094;13.428;2023-07-22T20:30:29;4.80;4.80;4.60
46044;PMS7003;31781;54.094;13.428;2023-07-22T20:32:33;6.60;6.60;5.80
46044;PMS7003;31781;54.094;13.428;2023-07-22T20:34:34;4.60;4.60;3.20
46044;PMS7003;31781;54.094;13.428;2023-07-22T20:36:38;4.40;4.40;3.80
46044;PMS7003;31781;54.094;13.428;2023-07-22T20:38:40;9.00;8.60;7.60
46044;PMS7003;31781;54.094;13.428;2023-07-22T20:40:42;11.60;11.60;9.80
46044;PMS7003;31781;54.094;13.428;2023-07-22T20:42:48;9.40;9.40;8.20
46044;PMS7003;31781;54.094;13.428;2023-07-22T20:44:49;6.60;6.60;5.20
46044;PMS7003;31781;54.094;13.428;2023-07-22T20:46:51;5.00;5.00;3.80
46044;PMS7003;31781;54.094;13.428;2023-07-22T20:48:53;6.60;5.60;4.80
46044;PMS7003;31781;54.094;13.428;2023-07-22T20:50:55;3.80;3.80;3.00
46044;PMS7003;31781;54.094;13.428;2023-07-22T20:52:58;4.00;4.00;3.00
46044;PMS7003;31781;54.094;13.428;2023-07-22T20:54:59;2.20;2.20;2.20
46044;PMS7003;31781;54.094;13.428;2023-07-22T20:57:01;2.80;2.80;2.40
46044;PMS7003;31781;54.094;13.428;2023-07-22T20:59:03;2.00;2.00;2.00
46044;PMS7003;31781;54.094;13.428;2023-07-22T21:01:05;2.00;2.00;2.00
46044;PMS7003;31781;54.094;13.428;2023-07-22T21:03:06;1.60;1.60;1.00
46044;PMS7003;31781;54.094;13.428;2023-07-22T21:05:09;1.00;1.00;0.60
46044;PMS7003;31781;54.094;13.428;2023-07-22T21:07:10;3.60;2.40;1.40
46044;PMS7003;31781;54.094;13.428;2023-07-22T21:09:14;1.40;1.40;1.40
46044;PMS7003;31781;54.094;13.428;2023-07-22T21:11:15;2.00;2.00;1.00
46044;PMS7003;31781;54.094;13.428;2023-07-22T21:13:19;3.40;2.40;2.00
46044;PMS7003;31781;54.094;13.428;2023-07-22T21:15:21;2.60;1.80;1.20
46044;PMS7003;31781;54.094;13.428;2023-07-22T21:17:23;3.40;2.20;2.00
46044;PMS7003;31781;54.094;13.428;2023-07-22T21:19:25;1.40;1.40;0.60
46044;PMS7003;31781;54.094;13.428;2023-07-22T21:21:27;0.00;0.00;0.00
46044;PMS7003;31781;54.094;13.428;2023-07-22T21:23:29;2.00;2.00;2.00
46044;PMS7003;31781;54.094;13.428;2023-07-22T21:25:32;1.80;1.80;1.60
46044;PMS7003;31781;54.094;13.428;2023-07-22T21:27:33;1.20;1.20;1.20
46044;PMS7003;31781;54.094;13.428;2023-07-22T21:29:48;3.40;2.60;1.80
46044;PMS7003;31781;54.094;13.428;2023-07-22T21:31:50;1.40;1.40;1.20
46044;PMS7003;31781;54.094;13.428;2023-07-22T21:33:51;3.40;2.00;1.60
46044;PMS7003;31781;54.094;13.428;2023-07-22T21:35:55;1.80;1.80;1.20
46044;PMS7003;31781;54.094;13.428;2023-07-22T21:37:57;2.60;2.60;2.40
46044;PMS7003;31781;54.094;13.428;2023-07-22T21:39:58;2.80;1.80;1.60
46044;PMS7003;31781;54.094;13.428;2023-07-22T21:42:02;1.60;1.60;1.60
46044;PMS7003;31781;54.094;13.428;2023-07-22T21:44:05;2.00;2.00;1.20
46044;PMS7003;31781;54.094;13.428;2023-07-22T21:46:09;1.60;1.60;1.40
46044;PMS7003;31781;54.094;13.428;2023-07-22T21:48:12;2.40;2.40;1.60
46044;PMS7003;31781;54.094;13.428;2023-07-22T21:50:14;2.60;2.60;1.60
46044;PMS7003;31781;54.094;13.428;2023-07-22T21:52:16;2.40;2.40;1.60
46044;PMS7003;31781;54.094;13.428;2023-07-22T21:54:17;2.00;2.00;1.60
46044;PMS7003;31781;54.094;13.428;2023-07-22T21:56:19;3.20;3.20;3.00
46044;PMS7003;31781;54.094;13.428;2023-07-22T21:58:22;4.40;2.60;2.40
46044;PMS7003;31781;54.094;13.428;2023-07-22T22:00:24;2.20;2.20;1.60
46044;PMS7003;31781;54.094;13.428;2023-07-22T22:02:26;2.00;2.00;0.60
46044;PMS7003;31781;54.094;13.428;2023-07-22T22:04:28;3.00;3.00;2.00
46044;PMS7003;31781;54.094;13.428;2023-07-22T22:06:30;1.80;1.80;1.80
46044;PMS7003;31781;54.094;13.428;2023-07-22T22:08:31;4.00;2.60;2.00
46044;PMS7003;31781;54.094;13.428;2023-07-22T22:10:34;2.60;2.00;1.00
46044;PMS7003;31781;54.094;13.428;2023-07-22T22:12:36;3.20;3.20;2.60
46044;PMS7003;31781;54.094;13.428;2023-07-22T22:14:40;2.80;2.80;2.60
46044;PMS7003;31781;54.094;13.428;2023-07-22T22:16:41;4.00;4.00;3.20
46044;PMS7003;31781;54.094;13.428;2023-07-22T22:18:43;3.20;3.20;2.20
46044;PMS7003;31781;54.094;13.428;2023-07-22T22:20:49;1.80;1.80;1.40
46044;PMS7003;31781;54.094;13.428;2023-07-22T22:22:51;1.80;1.80;1.60
46044;PMS7003;31781;54.094;13.428;2023-07-22T22:24:52;1.80;1.80;1.80
46044;PMS7003;31781;54.094;13.428;2023-07-22T22:26:54;2.60;2.60;2.20
46044;PMS7003;31781;54.094;13.428;2023-07-22T22:28:56;1.80;1.80;1.80
46044;PMS7003;31781;54.094;13.428;2023-07-22T22:30:59;1.80;1.80;1.80
46044;PMS7003;31781;54.094;13.428;2023-07-22T22:33:01;2.00;2.00;1.80
46044;PMS7003;31781;54.094;13.428;2023-07-22T22:35:04;3.40;2.80;2.40
46044;PMS7003;31781;54.094;13.428;2023-07-22T22:37:06;2.80;2.80;2.80
46044;PMS7003;31781;54.094;13.428;2023-07-22T22:39:08;2.60;2.60;2.00
46044;PMS7003;31781;54.094;13.428;2023-07-22T22:41:09;3.00;3.00;2.20
46044;PMS7003;31781;54.094;13.428;2023-07-22T22:43:11;2.60;2.40;1.80
46044;PMS7003;31781;54.094;13.428;2023-07-22T22:45:13;2.20;2.20;2.00
46044;PMS7003;31781;54.094;13.428;2023-07-22T22:47:16;2.80;2.80;2.40
46044;PMS7003;31781;54.094;13.428;2023-07-22T22:49:18;3.00;3.00;2.60
46044;PMS7003;31781;54.094;13.428;2023-07-22T22:51:20;2.40;2.40;2.20
46044;PMS7003;31781;54.094;13.428;2023-07-22T22:53:23;4.40;3.00;2.20
46044;PMS7003;31781;54.094;13.428;2023-07-22T22:55:25;2.80;2.80;2.60
46044;PMS7003;31781;54.094;13.428;2023-07-22T22:57:26;3.00;3.00;2.00
46044;PMS7003;31781;54.094;13.428;2023-07-22T22:59:28;3.80;3.80;3.00
46044;PMS7003;31781;54.094;13.428;2023-07-22T23:01:30;2.80;2.80;2.80
46044;PMS7003;31781;54.094;13.428;2023-07-22T23:03:33;3.00;3.00;2.60
46044;PMS7003;31781;54.094;13.428;2023-07-22T23:05:34;3.00;3.00;2.00
46044;PMS7003;31781;54.094;13.428;2023-07-22T23:07:36;3.40;3.40;3.00
46044;PMS7003;31781;54.094;13.428;2023-07-22T23:09:38;4.20;2.60;2.00
46044;PMS7003;31781;54.094;13.428;2023-07-22T23:11:40;3.80;3.80;3.00
46044;PMS7003;31781;54.094;13.428;2023-07-22T23:13:42;1.80;1.80;1.20
46044;PMS7003;31781;54.094;13.428;2023-07-22T23:15:43;3.60;3.60;2.60
46044;PMS7003;31781;54.094;13.428;2023-07-22T23:17:45;5.00;4.40;3.80
46044;PMS7003;31781;54.094;13.428;2023-07-22T23:19:49;3.00;3.00;2.60
46044;PMS7003;31781;54.094;13.428;2023-07-22T23:21:51;5.40;4.00;3.00
46044;PMS7003;31781;54.094;13.428;2023-07-22T23:23:52;4.40;4.40;3.80
46044;PMS7003;31781;54.094;13.428;2023-07-22T23:25:56;3.00;3.00;2.80
46044;PMS7003;31781;54.094;13.428;2023-07-22T23:27:58;3.00;3.00;2.20
46044;PMS7003;31781;54.094;13.428;2023-07-22T23:30:01;4.20;4.20;3.00
46044;PMS7003;31781;54.094;13.428;2023-07-22T23:32:04;4.20;4.00;3.00
46044;PMS7003;31781;54.094;13.428;2023-07-22T23:34:06;4.00;4.00;3.60
46044;PMS7003;31781;54.094;13.428;2023-07-22T23:36:09;4.80;4.80;3.80
46044;PMS7003;31781;54.094;13.428;2023-07-22T23:38:11;3.00;3.00;2.00
46044;PMS7003;31781;54.094;13.428;2023-07-22T23:40:13;3.00;3.00;3.00
46044;PMS7003;31781;54.094;13.428;2023-07-22T23:42:15;4.40;4.40;3.80
46044;PMS7003;31781;54.094;13.428;2023-07-22T23:44:16;4.00;4.00;3.00
46044;PMS7003;31781;54.094;13.428;2023-07-22T23:46:18;4.80;4.80;4.00
46044;PMS7003;31781;54.094;13.428;2023-07-22T23:48:20;4.80;4.80;4.00
46044;PMS7003;31781;54.094;13.428;2023-07-22T23:50:23;5.40;5.40;4.00
46044;PMS7003;31781;54.094;13.428;2023-07-22T23:52:26;3.60;3.60;3.00
46044;PMS7003;31781;54.094;13.428;2023-07-22T23:54:28;3.00;3.00;3.00
46044;PMS7003;31781;54.094;13.428;2023-07-22T23:56:29;5.00;5.00;4.00
46044;PMS7003;31781;54.094;13.428;2023-07-22T23:58:31;5.60;5.60;4.40
